sensor_id;sensor_type;location;lat;lon;timestamp;P1;durP1;ratioP1;P2;durP2;ratioP2
63008;SDS011;49099;28.428;-16.488;2023-09-19T00:00:41;5.93;;;1.63;;
63008;SDS011;49099;28.428;-16.488;2023-09-19T00:03:30;5.18;;;1.40;;
63008;SDS011;49099;28.428;-16.488;2023-09-19T00:06:18;3.47;;;1.15;;
63008;SDS011;49099;28.428;-16.488;2023-09-19T00:09:07;3.88;;;1.60;;
63008;SDS011;49099;28.428;-16.488;2023-09-19T00:11:57;4.57;;;1.40;;
63008;SDS011;49099;28.428;-16.488;2023-09-19T00:14:46;2.47;;;1.25;;
63008;SDS011;49099;28.428;-16.488;2023-09-19T00:17:35;4.63;;;1.40;;
63008;SDS011;49099;28.428;-16.488;2023-09-19T00:20:24;5.10;;;1.50;;
63008;SDS011;49099;28.428;-16.488;2023-09-19T00:23:11;5.25;;;1.42;;
63008;SDS011;49099;28.428;-16.488;2023-09-19T00:25:59;5.82;;;1.60;;
63008;SDS011;49099;28.428;-16.488;2023-09-19T00:28:48;5.65;;;1.55;;
63008;SDS011;49099;28.428;-16.488;2023-09-19T00:31:35;6.90;;;1.50;;
63008;SDS011;49099;28.428;-16.488;2023-09-19T00:34:24;6.07;;;2.08;;
63008;SDS011;49099;28.428;-16.488;2023-09-19T00:37:12;4.13;;;1.33;;
63008;SDS011;49099;28.428;-16.488;2023-09-19T00:40:00;3.83;;;1.52;;
63008;SDS011;49099;28.428;-16.488;2023-09-19T00:42:48;5.30;;;1.55;;
63008;SDS011;49099;28.428;-16.488;2023-09-19T00:45:36;3.95;;;1.30;;
63008;SDS011;49099;28.428;-16.488;2023-09-19T00:48:25;6.07;;;1.58;;
63008;SDS011;49099;28.428;-16.488;2023-09-19T00:51:16;4.95;;;1.40;;
63008;SDS011;49099;28.428;-16.488;2023-09-19T00:54:07;6.88;;;1.55;;
63008;SDS011;49099;28.428;-16.488;2023-09-19T00:56:55;5.75;;;1.60;;
63008;SDS011;49099;28.428;-16.488;2023-09-19T00:59:43;7.10;;;1.60;;
63008;SDS011;49099;28.428;-16.488;2023-09-19T01:02:31;6.38;;;1.60;;
63008;SDS011;49099;28.428;-16.488;2023-09-19T01:05:20;7.15;;;1.70;;
63008;SDS011;49099;28.428;-16.488;2023-09-19T01:08:07;6.68;;;1.73;;
63008;SDS011;49099;28.428;-16.488;2023-09-19T01:11:40;5.15;;;1.40;;
63008;SDS011;49099;28.428;-16.488;2023-09-19T01:17:08;5.95;;;1.30;;
63008;SDS011;49099;28.428;-16.488;2023-09-19T01:20:10;5.55;;;1.60;;
63008;SDS011;49099;28.428;-16.488;2023-09-19T01:29:36;5.22;;;1.50;;
63008;SDS011;49099;28.428;-16.488;2023-09-19T01:32:26;5.00;;;1.42;;
63008;SDS011;49099;28.428;-16.488;2023-09-19T01:35:14;6.45;;;1.67;;
63008;SDS011;49099;28.428;-16.488;2023-09-19T01:38:02;5.43;;;1.50;;
63008;SDS011;49099;28.428;-16.488;2023-09-19T01:41:04;2.63;;;1.35;;
63008;SDS011;49099;28.428;-16.488;2023-09-19T01:43:59;4.50;;;1.50;;
63008;SDS011;49099;28.428;-16.488;2023-09-19T01:46:50;4.18;;;1.40;;
63008;SDS011;49099;28.428;-16.488;2023-09-19T01:49:50;5.10;;;1.50;;
63008;SDS011;49099;28.428;-16.488;2023-09-19T01:52:47;4.28;;;1.40;;
63008;SDS011;49099;28.428;-16.488;2023-09-19T01:55:42;6.18;;;1.83;;
63008;SDS011;49099;28.428;-16.488;2023-09-19T01:58:46;3.67;;;1.20;;
63008;SDS011;49099;28.428;-16.488;2023-09-19T02:01:38;2.95;;;1.48;;
63008;SDS011;49099;28.428;-16.488;2023-09-19T02:04:27;5.05;;;1.50;;
63008;SDS011;49099;28.428;-16.488;2023-09-19T02:07:16;3.72;;;1.40;;
63008;SDS011;49099;28.428;-16.488;2023-09-19T02:10:04;5.65;;;1.30;;
63008;SDS011;49099;28.428;-16.488;2023-09-19T02:12:53;4.63;;;1.70;;
63008;SDS011;49099;28.428;-16.488;2023-09-19T02:15:40;4.60;;;1.67;;
63008;SDS011;49099;28.428;-16.488;2023-09-19T02:18:28;5.90;;;1.58;;
63008;SDS011;49099;28.428;-16.488;2023-09-19T02:21:15;4.82;;;1.30;;
63008;SDS011;49099;28.428;-16.488;2023-09-19T02:24:04;4.63;;;1.50;;
63008;SDS011;49099;28.428;-16.488;2023-09-19T02:26:52;3.80;;;1.70;;
63008;SDS011;49099;28.428;-16.488;2023-09-19T02:29:41;4.07;;;1.50;;
63008;SDS011;49099;28.428;-16.488;2023-09-19T02:32:29;3.97;;;1.80;;
63008;SDS011;49099;28.428;-16.488;2023-09-19T02:35:23;5.07;;;1.70;;
63008;SDS011;49099;28.428;-16.488;2023-09-19T02:38:13;2.70;;;1.55;;
63008;SDS011;49099;28.428;-16.488;2023-09-19T02:41:01;4.88;;;1.73;;
63008;SDS011;49099;28.428;-16.488;2023-09-19T02:43:50;3.30;;;1.35;;
63008;SDS011;49099;28.428;-16.488;2023-09-19T02:46:37;3.17;;;1.40;;
63008;SDS011;49099;28.428;-16.488;2023-09-19T02:49:25;2.65;;;1.45;;
63008;SDS011;49099;28.428;-16.488;2023-09-19T02:52:13;5.30;;;1.70;;
63008;SDS011;49099;28.428;-16.488;2023-09-19T02:55:01;4.90;;;1.50;;
63008;SDS011;49099;28.428;-16.488;2023-09-19T02:57:52;4.32;;;1.60;;
63008;SDS011;49099;28.428;-16.488;2023-09-19T03:00:43;3.20;;;1.55;;
63008;SDS011;49099;28.428;-16.488;2023-09-19T03:03:35;3.15;;;1.40;;
63008;SDS011;49099;28.428;-16.488;2023-09-19T03:06:24;2.88;;;1.35;;
63008;SDS011;49099;28.428;-16.488;2023-09-19T03:09:12;3.40;;;1.63;;
63008;SDS011;49099;28.428;-16.488;2023-09-19T03:12:00;3.33;;;1.55;;
63008;SDS011;49099;28.428;-16.488;2023-09-19T03:14:48;3.50;;;1.52;;
63008;SDS011;49099;28.428;-16.488;2023-09-19T03:17:37;3.33;;;1.30;;
63008;SDS011;49099;28.428;-16.488;2023-09-19T03:20:25;3.03;;;1.60;;
63008;SDS011;49099;28.428;-16.488;2023-09-19T03:23:14;3.35;;;1.40;;
63008;SDS011;49099;28.428;-16.488;2023-09-19T03:26:02;4.32;;;1.50;;
63008;SDS011;49099;28.428;-16.488;2023-09-19T03:28:52;3.40;;;1.40;;
63008;SDS011;49099;28.428;-16.488;2023-09-19T03:31:40;4.10;;;1.58;;
63008;SDS011;49099;28.428;-16.488;2023-09-19T03:34:28;5.47;;;1.70;;
63008;SDS011;49099;28.428;-16.488;2023-09-19T03:37:16;5.50;;;1.35;;
63008;SDS011;49099;28.428;-16.488;2023-09-19T03:40:04;6.03;;;1.58;;
63008;SDS011;49099;28.428;-16.488;2023-09-19T03:42:52;3.65;;;1.50;;
63008;SDS011;49099;28.428;-16.488;2023-09-19T03:45:40;3.92;;;1.42;;
63008;SDS011;49099;28.428;-16.488;2023-09-19T03:48:28;6.25;;;1.60;;
63008;SDS011;49099;28.428;-16.488;2023-09-19T03:51:16;6.95;;;2.08;;
63008;SDS011;49099;28.428;-16.488;2023-09-19T03:54:03;4.60;;;1.70;;
63008;SDS011;49099;28.428;-16.488;2023-09-19T03:56:51;4.32;;;1.58;;
63008;SDS011;49099;28.428;-16.488;2023-09-19T03:59:39;5.80;;;1.83;;
63008;SDS011;49099;28.428;-16.488;2023-09-19T04:02:26;5.60;;;1.85;;
63008;SDS011;49099;28.428;-16.488;2023-09-19T04:05:20;6.30;;;2.00;;
63008;SDS011;49099;28.428;-16.488;2023-09-19T04:08:07;10.27;;;2.15;;
63008;SDS011;49099;28.428;-16.488;2023-09-19T04:10:55;6.88;;;1.80;;
63008;SDS011;49099;28.428;-16.488;2023-09-19T04:13:43;8.10;;;2.10;;
63008;SDS011;49099;28.428;-16.488;2023-09-19T04:16:31;6.30;;;1.85;;
63008;SDS011;49099;28.428;-16.488;2023-09-19T04:19:19;6.97;;;1.92;;
63008;SDS011;49099;28.428;-16.488;2023-09-19T04:22:08;6.88;;;1.88;;
63008;SDS011;49099;28.428;-16.488;2023-09-19T04:24:56;7.63;;;2.10;;
63008;SDS011;49099;28.428;-16.488;2023-09-19T04:27:44;10.02;;;2.30;;
63008;SDS011;49099;28.428;-16.488;2023-09-19T04:30:31;7.93;;;2.13;;
63008;SDS011;49099;28.428;-16.488;2023-09-19T04:33:19;7.35;;;2.35;;
63008;SDS011;49099;28.428;-16.488;2023-09-19T04:36:06;7.53;;;2.15;;
63008;SDS011;49099;28.428;-16.488;2023-09-19T04:39:14;8.95;;;2.20;;
63008;SDS011;49099;28.428;-16.488;2023-09-19T04:42:02;5.38;;;2.05;;
63008;SDS011;49099;28.428;-16.488;2023-09-19T04:44:50;5.85;;;2.38;;
63008;SDS011;49099;28.428;-16.488;2023-09-19T04:47:41;6.85;;;2.20;;
63008;SDS011;49099;28.428;-16.488;2023-09-19T04:50:31;7.93;;;2.00;;
63008;SDS011;49099;28.428;-16.488;2023-09-19T04:53:18;7.10;;;2.17;;
63008;SDS011;49099;28.428;-16.488;2023-09-19T04:56:07;7.53;;;2.13;;
63008;SDS011;49099;28.428;-16.488;2023-09-19T04:58:55;6.22;;;2.20;;
63008;SDS011;49099;28.428;-16.488;2023-09-19T05:01:43;6.32;;;2.05;;
63008;SDS011;49099;28.428;-16.488;2023-09-19T05:04:31;6.72;;;2.35;;
63008;SDS011;49099;28.428;-16.488;2023-09-19T05:07:19;9.25;;;2.13;;
63008;SDS011;49099;28.428;-16.488;2023-09-19T05:10:09;5.95;;;2.00;;
63008;SDS011;49099;28.428;-16.488;2023-09-19T05:12:57;7.70;;;2.28;;
63008;SDS011;49099;28.428;-16.488;2023-09-19T05:15:45;12.05;;;2.70;;
63008;SDS011;49099;28.428;-16.488;2023-09-19T05:18:32;7.68;;;2.17;;
63008;SDS011;49099;28.428;-16.488;2023-09-19T05:21:20;6.60;;;2.30;;
63008;SDS011;49099;28.428;-16.488;2023-09-19T05:24:07;10.77;;;2.50;;
63008;SDS011;49099;28.428;-16.488;2023-09-19T05:26:57;6.35;;;2.15;;
63008;SDS011;49099;28.428;-16.488;2023-09-19T05:29:44;8.43;;;2.35;;
63008;SDS011;49099;28.428;-16.488;2023-09-19T05:32:32;10.25;;;2.20;;
63008;SDS011;49099;28.428;-16.488;2023-09-19T05:35:20;7.78;;;2.25;;
63008;SDS011;49099;28.428;-16.488;2023-09-19T05:38:08;8.13;;;2.20;;
63008;SDS011;49099;28.428;-16.488;2023-09-19T05:40:56;8.13;;;2.20;;
63008;SDS011;49099;28.428;-16.488;2023-09-19T05:43:44;10.23;;;2.20;;
63008;SDS011;49099;28.428;-16.488;2023-09-19T05:46:31;8.18;;;2.35;;
63008;SDS011;49099;28.428;-16.488;2023-09-19T05:49:19;6.28;;;2.42;;
63008;SDS011;49099;28.428;-16.488;2023-09-19T05:52:08;4.97;;;2.08;;
63008;SDS011;49099;28.428;-16.488;2023-09-19T05:54:56;8.95;;;2.30;;
63008;SDS011;49099;28.428;-16.488;2023-09-19T05:57:49;7.07;;;2.33;;
63008;SDS011;49099;28.428;-16.488;2023-09-19T06:00:37;6.00;;;2.25;;
63008;SDS011;49099;28.428;-16.488;2023-09-19T06:03:26;5.68;;;2.10;;
63008;SDS011;49099;28.428;-16.488;2023-09-19T06:06:14;7.18;;;2.65;;
63008;SDS011;49099;28.428;-16.488;2023-09-19T06:09:02;9.82;;;2.53;;
63008;SDS011;49099;28.428;-16.488;2023-09-19T06:11:52;5.18;;;2.20;;
63008;SDS011;49099;28.428;-16.488;2023-09-19T06:14:40;5.18;;;2.28;;
63008;SDS011;49099;28.428;-16.488;2023-09-19T06:17:28;4.05;;;2.20;;
63008;SDS011;49099;28.428;-16.488;2023-09-19T06:20:16;6.60;;;2.13;;
63008;SDS011;49099;28.428;-16.488;2023-09-19T06:23:04;7.75;;;2.55;;
63008;SDS011;49099;28.428;-16.488;2023-09-19T06:25:54;4.90;;;2.10;;
63008;SDS011;49099;28.428;-16.488;2023-09-19T06:28:42;6.38;;;2.60;;
63008;SDS011;49099;28.428;-16.488;2023-09-19T06:31:31;6.63;;;2.40;;
63008;SDS011;49099;28.428;-16.488;2023-09-19T06:34:18;6.15;;;2.20;;
63008;SDS011;49099;28.428;-16.488;2023-09-19T06:37:06;6.10;;;1.88;;
63008;SDS011;49099;28.428;-16.488;2023-09-19T06:39:54;6.75;;;2.50;;
63008;SDS011;49099;28.428;-16.488;2023-09-19T06:42:45;5.72;;;2.13;;
63008;SDS011;49099;28.428;-16.488;2023-09-19T06:45:34;5.53;;;2.10;;
63008;SDS011;49099;28.428;-16.488;2023-09-19T06:48:22;8.43;;;2.05;;
63008;SDS011;49099;28.428;-16.488;2023-09-19T06:51:12;8.43;;;2.50;;
63008;SDS011;49099;28.428;-16.488;2023-09-19T06:54:02;8.57;;;2.40;;
63008;SDS011;49099;28.428;-16.488;2023-09-19T06:56:52;16.10;;;2.55;;
63008;SDS011;49099;28.428;-16.488;2023-09-19T06:59:39;7.05;;;2.05;;
63008;SDS011;49099;28.428;-16.488;2023-09-19T07:02:27;7.03;;;2.33;;
63008;SDS011;49099;28.428;-16.488;2023-09-19T07:05:15;5.95;;;2.38;;
63008;SDS011;49099;28.428;-16.488;2023-09-19T07:08:04;9.77;;;2.20;;
63008;SDS011;49099;28.428;-16.488;2023-09-19T07:10:57;8.80;;;2.70;;
63008;SDS011;49099;28.428;-16.488;2023-09-19T07:13:45;8.75;;;2.45;;
63008;SDS011;49099;28.428;-16.488;2023-09-19T07:16:34;7.90;;;2.58;;
63008;SDS011;49099;28.428;-16.488;2023-09-19T07:19:23;7.07;;;2.40;;
63008;SDS011;49099;28.428;-16.488;2023-09-19T07:22:10;9.82;;;2.35;;
63008;SDS011;49099;28.428;-16.488;2023-09-19T07:24:58;9.23;;;2.50;;
63008;SDS011;49099;28.428;-16.488;2023-09-19T07:27:45;7.13;;;2.10;;
63008;SDS011;49099;28.428;-16.488;2023-09-19T07:30:35;7.60;;;1.90;;
63008;SDS011;49099;28.428;-16.488;2023-09-19T07:33:24;5.75;;;2.15;;
63008;SDS011;49099;28.428;-16.488;2023-09-19T07:36:13;8.07;;;2.30;;
63008;SDS011;49099;28.428;-16.488;2023-09-19T07:39:02;7.13;;;2.30;;
63008;SDS011;49099;28.428;-16.488;2023-09-19T07:42:08;7.95;;;2.22;;
63008;SDS011;49099;28.428;-16.488;2023-09-19T07:44:58;10.80;;;2.33;;
63008;SDS011;49099;28.428;-16.488;2023-09-19T07:47:47;8.63;;;2.40;;
63008;SDS011;49099;28.428;-16.488;2023-09-19T07:50:36;8.02;;;2.22;;
63008;SDS011;49099;28.428;-16.488;2023-09-19T07:53:25;5.28;;;2.25;;
63008;SDS011;49099;28.428;-16.488;2023-09-19T07:56:12;7.70;;;2.28;;
63008;SDS011;49099;28.428;-16.488;2023-09-19T07:59:00;12.15;;;2.50;;
63008;SDS011;49099;28.428;-16.488;2023-09-19T08:01:48;5.55;;;2.10;;
63008;SDS011;49099;28.428;-16.488;2023-09-19T08:04:36;5.65;;;2.05;;
63008;SDS011;49099;28.428;-16.488;2023-09-19T08:07:23;5.07;;;2.03;;
63008;SDS011;49099;28.428;-16.488;2023-09-19T08:10:11;6.68;;;2.05;;
63008;SDS011;49099;28.428;-16.488;2023-09-19T08:13:00;6.85;;;2.38;;
63008;SDS011;49099;28.428;-16.488;2023-09-19T08:15:49;6.72;;;2.28;;
63008;SDS011;49099;28.428;-16.488;2023-09-19T08:18:38;9.45;;;2.40;;
63008;SDS011;49099;28.428;-16.488;2023-09-19T08:21:27;7.43;;;2.20;;
63008;SDS011;49099;28.428;-16.488;2023-09-19T08:24:16;8.30;;;2.25;;
63008;SDS011;49099;28.428;-16.488;2023-09-19T08:27:05;5.05;;;1.77;;
63008;SDS011;49099;28.428;-16.488;2023-09-19T08:29:56;7.38;;;1.98;;
63008;SDS011;49099;28.428;-16.488;2023-09-19T08:32:44;7.13;;;2.00;;
63008;SDS011;49099;28.428;-16.488;2023-09-19T08:35:33;6.72;;;2.22;;
63008;SDS011;49099;28.428;-16.488;2023-09-19T08:38:22;4.45;;;2.10;;
63008;SDS011;49099;28.428;-16.488;2023-09-19T08:41:09;8.93;;;2.25;;
63008;SDS011;49099;28.428;-16.488;2023-09-19T08:44:00;5.47;;;2.00;;
63008;SDS011;49099;28.428;-16.488;2023-09-19T08:46:54;6.40;;;1.95;;
63008;SDS011;49099;28.428;-16.488;2023-09-19T08:53:10;12.27;;;2.28;;
63008;SDS011;49099;28.428;-16.488;2023-09-19T08:56:01;8.13;;;2.30;;
63008;SDS011;49099;28.428;-16.488;2023-09-19T08:58:51;9.90;;;2.60;;
63008;SDS011;49099;28.428;-16.488;2023-09-19T09:01:44;8.52;;;2.15;;
63008;SDS011;49099;28.428;-16.488;2023-09-19T09:04:33;8.27;;;2.42;;
63008;SDS011;49099;28.428;-16.488;2023-09-19T09:07:22;10.23;;;2.72;;
63008;SDS011;49099;28.428;-16.488;2023-09-19T09:10:10;10.20;;;2.25;;
63008;SDS011;49099;28.428;-16.488;2023-09-19T09:12:58;6.90;;;2.10;;
63008;SDS011;49099;28.428;-16.488;2023-09-19T09:15:46;9.57;;;2.38;;
63008;SDS011;49099;28.428;-16.488;2023-09-19T09:18:34;8.65;;;2.53;;
63008;SDS011;49099;28.428;-16.488;2023-09-19T09:21:22;9.30;;;2.40;;
63008;SDS011;49099;28.428;-16.488;2023-09-19T09:24:27;11.27;;;2.65;;
63008;SDS011;49099;28.428;-16.488;2023-09-19T09:27:21;13.93;;;3.22;;
63008;SDS011;49099;28.428;-16.488;2023-09-19T09:30:11;10.68;;;2.50;;
63008;SDS011;49099;28.428;-16.488;2023-09-19T09:33:24;15.70;;;3.45;;
63008;SDS011;49099;28.428;-16.488;2023-09-19T09:36:12;12.43;;;3.00;;
63008;SDS011;49099;28.428;-16.488;2023-09-19T09:39:02;12.93;;;2.88;;
63008;SDS011;49099;28.428;-16.488;2023-09-19T09:42:03;12.85;;;2.78;;
63008;SDS011;49099;28.428;-16.488;2023-09-19T09:45:15;12.50;;;3.00;;
63008;SDS011;49099;28.428;-16.488;2023-09-19T09:48:03;16.83;;;3.42;;
63008;SDS011;49099;28.428;-16.488;2023-09-19T09:50:57;6.78;;;2.50;;
63008;SDS011;49099;28.428;-16.488;2023-09-19T09:53:50;11.90;;;3.10;;
63008;SDS011;49099;28.428;-16.488;2023-09-19T09:56:55;11.43;;;2.72;;
63008;SDS011;49099;28.428;-16.488;2023-09-19T10:02:35;20.55;;;3.53;;
63008;SDS011;49099;28.428;-16.488;2023-09-19T10:05:28;13.75;;;3.08;;
63008;SDS011;49099;28.428;-16.488;2023-09-19T10:08:27;15.13;;;3.70;;
63008;SDS011;49099;28.428;-16.488;2023-09-19T10:11:18;13.48;;;2.80;;
63008;SDS011;49099;28.428;-16.488;2023-09-19T10:14:06;10.93;;;3.00;;
63008;SDS011;49099;28.428;-16.488;2023-09-19T10:16:57;10.38;;;3.10;;
63008;SDS011;49099;28.428;-16.488;2023-09-19T10:19:56;10.50;;;2.95;;
63008;SDS011;49099;28.428;-16.488;2023-09-19T10:22:53;6.20;;;2.42;;
63008;SDS011;49099;28.428;-16.488;2023-09-19T10:25:45;11.63;;;3.00;;
63008;SDS011;49099;28.428;-16.488;2023-09-19T10:28:34;9.60;;;2.33;;
63008;SDS011;49099;28.428;-16.488;2023-09-19T10:31:24;14.80;;;2.90;;
63008;SDS011;49099;28.428;-16.488;2023-09-19T10:34:15;8.98;;;2.55;;
63008;SDS011;49099;28.428;-16.488;2023-09-19T10:37:04;9.68;;;2.78;;
63008;SDS011;49099;28.428;-16.488;2023-09-19T10:39:53;8.75;;;2.60;;
63008;SDS011;49099;28.428;-16.488;2023-09-19T10:42:43;14.35;;;3.05;;
63008;SDS011;49099;28.428;-16.488;2023-09-19T10:45:35;11.32;;;2.80;;
63008;SDS011;49099;28.428;-16.488;2023-09-19T10:48:25;8.98;;;2.83;;
63008;SDS011;49099;28.428;-16.488;2023-09-19T10:51:20;10.35;;;2.53;;
63008;SDS011;49099;28.428;-16.488;2023-09-19T10:54:12;12.57;;;2.92;;
63008;SDS011;49099;28.428;-16.488;2023-09-19T10:57:03;12.82;;;2.70;;
63008;SDS011;49099;28.428;-16.488;2023-09-19T11:00:03;14.43;;;2.72;;
63008;SDS011;49099;28.428;-16.488;2023-09-19T11:06:02;9.60;;;2.67;;
63008;SDS011;49099;28.428;-16.488;2023-09-19T11:09:04;12.48;;;2.78;;
63008;SDS011;49099;28.428;-16.488;2023-09-19T11:12:09;10.85;;;2.30;;
63008;SDS011;49099;28.428;-16.488;2023-09-19T11:14:59;9.38;;;2.30;;
63008;SDS011;49099;28.428;-16.488;2023-09-19T11:17:47;7.88;;;2.00;;
63008;SDS011;49099;28.428;-16.488;2023-09-19T11:20:35;9.75;;;2.50;;
63008;SDS011;49099;28.428;-16.488;2023-09-19T11:23:26;10.07;;;2.30;;
63008;SDS011;49099;28.428;-16.488;2023-09-19T11:29:34;9.65;;;2.33;;
63008;SDS011;49099;28.428;-16.488;2023-09-19T11:32:54;9.55;;;2.35;;
63008;SDS011;49099;28.428;-16.488;2023-09-19T11:36:08;9.07;;;2.25;;
63008;SDS011;49099;28.428;-16.488;2023-09-19T11:39:03;9.27;;;2.40;;
63008;SDS011;49099;28.428;-16.488;2023-09-19T11:41:56;12.60;;;2.78;;
63008;SDS011;49099;28.428;-16.488;2023-09-19T11:44:43;12.40;;;2.65;;
63008;SDS011;49099;28.428;-16.488;2023-09-19T11:47:31;11.65;;;2.80;;
63008;SDS011;49099;28.428;-16.488;2023-09-19T11:50:22;12.55;;;2.45;;
63008;SDS011;49099;28.428;-16.488;2023-09-19T11:53:11;12.68;;;2.50;;
63008;SDS011;49099;28.428;-16.488;2023-09-19T11:55:59;9.23;;;2.72;;
63008;SDS011;49099;28.428;-16.488;2023-09-19T11:58:52;9.35;;;2.50;;
63008;SDS011;49099;28.428;-16.488;2023-09-19T12:04:38;9.30;;;2.20;;
63008;SDS011;49099;28.428;-16.488;2023-09-19T12:07:28;12.70;;;2.70;;
63008;SDS011;49099;28.428;-16.488;2023-09-19T12:10:17;10.45;;;2.33;;
63008;SDS011;49099;28.428;-16.488;2023-09-19T12:13:08;9.27;;;2.35;;
63008;SDS011;49099;28.428;-16.488;2023-09-19T12:15:57;10.93;;;2.58;;
63008;SDS011;49099;28.428;-16.488;2023-09-19T12:18:48;9.52;;;2.75;;
63008;SDS011;49099;28.428;-16.488;2023-09-19T12:21:37;11.77;;;2.60;;
63008;SDS011;49099;28.428;-16.488;2023-09-19T12:24:25;8.32;;;2.35;;
63008;SDS011;49099;28.428;-16.488;2023-09-19T12:27:17;9.05;;;2.97;;
63008;SDS011;49099;28.428;-16.488;2023-09-19T12:30:05;10.05;;;2.30;;
63008;SDS011;49099;28.428;-16.488;2023-09-19T12:33:16;7.75;;;2.08;;
63008;SDS011;49099;28.428;-16.488;2023-09-19T12:36:22;12.07;;;2.50;;
63008;SDS011;49099;28.428;-16.488;2023-09-19T12:42:14;8.85;;;2.60;;
63008;SDS011;49099;28.428;-16.488;2023-09-19T12:45:03;8.85;;;2.20;;
63008;SDS011;49099;28.428;-16.488;2023-09-19T12:51:19;11.88;;;2.28;;
63008;SDS011;49099;28.428;-16.488;2023-09-19T12:54:10;8.77;;;2.40;;
63008;SDS011;49099;28.428;-16.488;2023-09-19T12:56:57;12.70;;;2.80;;
63008;SDS011;49099;28.428;-16.488;2023-09-19T12:59:45;11.13;;;2.75;;
63008;SDS011;49099;28.428;-16.488;2023-09-19T13:02:33;8.48;;;2.40;;
63008;SDS011;49099;28.428;-16.488;2023-09-19T13:05:20;9.75;;;2.50;;
63008;SDS011;49099;28.428;-16.488;2023-09-19T13:08:18;14.38;;;2.90;;
63008;SDS011;49099;28.428;-16.488;2023-09-19T13:11:11;9.65;;;2.50;;
63008;SDS011;49099;28.428;-16.488;2023-09-19T13:14:16;9.98;;;2.45;;
63008;SDS011;49099;28.428;-16.488;2023-09-19T13:17:18;10.50;;;2.70;;
63008;SDS011;49099;28.428;-16.488;2023-09-19T13:20:07;9.15;;;2.72;;
63008;SDS011;49099;28.428;-16.488;2023-09-19T13:23:26;8.30;;;2.25;;
63008;SDS011;49099;28.428;-16.488;2023-09-19T13:26:14;9.75;;;2.28;;
63008;SDS011;49099;28.428;-16.488;2023-09-19T13:29:01;9.57;;;2.45;;
63008;SDS011;49099;28.428;-16.488;2023-09-19T13:31:49;9.57;;;2.50;;
63008;SDS011;49099;28.428;-16.488;2023-09-19T13:34:40;10.40;;;2.45;;
63008;SDS011;49099;28.428;-16.488;2023-09-19T13:37:30;16.20;;;2.58;;
63008;SDS011;49099;28.428;-16.488;2023-09-19T13:40:17;12.30;;;2.55;;
63008;SDS011;49099;28.428;-16.488;2023-09-19T13:43:05;11.27;;;2.78;;
63008;SDS011;49099;28.428;-16.488;2023-09-19T13:45:53;10.20;;;2.70;;
63008;SDS011;49099;28.428;-16.488;2023-09-19T13:48:41;9.00;;;2.22;;
63008;SDS011;49099;28.428;-16.488;2023-09-19T13:51:30;9.80;;;2.15;;
63008;SDS011;49099;28.428;-16.488;2023-09-19T13:54:18;11.82;;;2.33;;
63008;SDS011;49099;28.428;-16.488;2023-09-19T13:57:07;9.57;;;2.53;;
63008;SDS011;49099;28.428;-16.488;2023-09-19T13:59:57;9.68;;;2.53;;
63008;SDS011;49099;28.428;-16.488;2023-09-19T14:02:44;8.63;;;2.15;;
63008;SDS011;49099;28.428;-16.488;2023-09-19T14:05:33;11.00;;;2.38;;
63008;SDS011;49099;28.428;-16.488;2023-09-19T14:08:21;10.13;;;2.30;;
63008;SDS011;49099;28.428;-16.488;2023-09-19T14:11:10;9.07;;;2.22;;
63008;SDS011;49099;28.428;-16.488;2023-09-19T14:13:58;12.40;;;2.33;;
63008;SDS011;49099;28.428;-16.488;2023-09-19T14:16:47;7.75;;;2.15;;
63008;SDS011;49099;28.428;-16.488;2023-09-19T14:19:34;10.25;;;2.78;;
63008;SDS011;49099;28.428;-16.488;2023-09-19T14:22:24;12.10;;;2.40;;
63008;SDS011;49099;28.428;-16.488;2023-09-19T14:25:11;9.07;;;2.20;;
63008;SDS011;49099;28.428;-16.488;2023-09-19T14:27:59;7.70;;;2.03;;
63008;SDS011;49099;28.428;-16.488;2023-09-19T14:30:46;9.30;;;2.30;;
63008;SDS011;49099;28.428;-16.488;2023-09-19T14:33:36;13.25;;;2.80;;
63008;SDS011;49099;28.428;-16.488;2023-09-19T14:36:25;10.05;;;2.28;;
63008;SDS011;49099;28.428;-16.488;2023-09-19T14:39:13;12.23;;;2.55;;
63008;SDS011;49099;28.428;-16.488;2023-09-19T14:42:00;8.68;;;2.45;;
63008;SDS011;49099;28.428;-16.488;2023-09-19T14:44:48;8.57;;;2.30;;
63008;SDS011;49099;28.428;-16.488;2023-09-19T14:47:37;11.80;;;2.42;;
63008;SDS011;49099;28.428;-16.488;2023-09-19T14:50:25;19.70;;;3.17;;
63008;SDS011;49099;28.428;-16.488;2023-09-19T14:53:13;13.30;;;2.65;;
63008;SDS011;49099;28.428;-16.488;2023-09-19T14:56:01;11.02;;;2.55;;
63008;SDS011;49099;28.428;-16.488;2023-09-19T14:58:54;10.23;;;2.42;;
63008;SDS011;49099;28.428;-16.488;2023-09-19T15:01:42;9.57;;;2.50;;
63008;SDS011;49099;28.428;-16.488;2023-09-19T15:04:30;8.77;;;2.30;;
63008;SDS011;49099;28.428;-16.488;2023-09-19T15:07:18;10.00;;;2.40;;
63008;SDS011;49099;28.428;-16.488;2023-09-19T15:10:06;10.05;;;2.40;;
63008;SDS011;49099;28.428;-16.488;2023-09-19T15:12:57;9.27;;;2.33;;
63008;SDS011;49099;28.428;-16.488;2023-09-19T15:15:44;7.32;;;2.03;;
63008;SDS011;49099;28.428;-16.488;2023-09-19T15:18:34;10.23;;;2.42;;
63008;SDS011;49099;28.428;-16.488;2023-09-19T15:21:25;7.57;;;2.53;;
63008;SDS011;49099;28.428;-16.488;2023-09-19T15:24:12;7.15;;;1.80;;
63008;SDS011;49099;28.428;-16.488;2023-09-19T15:27:00;5.60;;;2.08;;
63008;SDS011;49099;28.428;-16.488;2023-09-19T15:29:48;9.88;;;2.50;;
63008;SDS011;49099;28.428;-16.488;2023-09-19T15:32:35;10.57;;;2.20;;
63008;SDS011;49099;28.428;-16.488;2023-09-19T15:35:24;10.57;;;2.10;;
63008;SDS011;49099;28.428;-16.488;2023-09-19T15:38:12;11.32;;;2.30;;
63008;SDS011;49099;28.428;-16.488;2023-09-19T15:41:00;9.18;;;2.20;;
63008;SDS011;49099;28.428;-16.488;2023-09-19T15:43:47;9.93;;;2.10;;
63008;SDS011;49099;28.428;-16.488;2023-09-19T15:46:35;7.45;;;2.17;;
63008;SDS011;49099;28.428;-16.488;2023-09-19T15:49:24;5.75;;;2.15;;
63008;SDS011;49099;28.428;-16.488;2023-09-19T15:52:12;7.60;;;2.08;;
63008;SDS011;49099;28.428;-16.488;2023-09-19T15:54:59;7.05;;;1.98;;
63008;SDS011;49099;28.428;-16.488;2023-09-19T15:57:50;7.03;;;1.98;;
63008;SDS011;49099;28.428;-16.488;2023-09-19T16:00:39;9.60;;;1.83;;
63008;SDS011;49099;28.428;-16.488;2023-09-19T16:03:27;5.88;;;2.00;;
63008;SDS011;49099;28.428;-16.488;2023-09-19T16:06:16;5.32;;;2.05;;
63008;SDS011;49099;28.428;-16.488;2023-09-19T16:09:05;6.57;;;2.08;;
63008;SDS011;49099;28.428;-16.488;2023-09-19T16:11:54;9.02;;;2.00;;
63008;SDS011;49099;28.428;-16.488;2023-09-19T16:14:41;8.02;;;2.15;;
63008;SDS011;49099;28.428;-16.488;2023-09-19T16:17:29;9.35;;;2.10;;
63008;SDS011;49099;28.428;-16.488;2023-09-19T16:20:16;6.15;;;2.03;;
63008;SDS011;49099;28.428;-16.488;2023-09-19T16:23:04;6.43;;;2.00;;
63008;SDS011;49099;28.428;-16.488;2023-09-19T16:26:04;6.80;;;1.90;;
63008;SDS011;49099;28.428;-16.488;2023-09-19T16:28:54;5.75;;;2.00;;
63008;SDS011;49099;28.428;-16.488;2023-09-19T16:31:48;5.15;;;1.67;;
63008;SDS011;49099;28.428;-16.488;2023-09-19T16:34:36;13.85;;;2.45;;
63008;SDS011;49099;28.428;-16.488;2023-09-19T16:37:24;9.32;;;1.95;;
63008;SDS011;49099;28.428;-16.488;2023-09-19T16:40:12;8.52;;;2.10;;
63008;SDS011;49099;28.428;-16.488;2023-09-19T16:42:59;4.75;;;1.80;;
63008;SDS011;49099;28.428;-16.488;2023-09-19T16:45:54;7.22;;;1.80;;
63008;SDS011;49099;28.428;-16.488;2023-09-19T16:48:44;5.57;;;1.75;;
63008;SDS011;49099;28.428;-16.488;2023-09-19T16:51:35;6.00;;;1.95;;
63008;SDS011;49099;28.428;-16.488;2023-09-19T16:54:24;4.25;;;1.95;;
63008;SDS011;49099;28.428;-16.488;2023-09-19T16:57:12;10.10;;;2.22;;
63008;SDS011;49099;28.428;-16.488;2023-09-19T17:00:02;6.72;;;2.10;;
63008;SDS011;49099;28.428;-16.488;2023-09-19T17:02:50;8.10;;;2.08;;